Terminal Aerodrome Forecast
Issued by NWS

Home | Current Version | Previous Version | Text Only | Print | Product List | Glossary On
Versions: 1 2 3 4 5 6 7 8 9 10 11 12 13
464
FTUS43 KDVN 261730
TAFBRL
TAF
KBRL 261730Z 2618/2718 28012KT P6SM SCT050
     FM262000 29012KT P6SM VCSH BKN060
     FM270000 32005KT P6SM SCT070=

USA.gov is the U.S. government's official web portal to all federal, state and local government web resources and services.